TSN weather

Tianjin Binhai International Airport
Tianjin, Tianjin Municipality, China

Public forecast

Using degrees Celsius for public forecast. Weather courtesy of forecast.io.

METAR (pilot weather report)

Retrieved 2019/07/23 16:30 UTC (13 minutes ago):

ZBTJ 231630Z 10001MPS 2200 BR NSC 28/26 Q0999 NOSIG

TAF (pilot weather forecast)

Retrieved 2019/07/23 12:00 UTC (5 hours ago):

TAF ZBTJ 230853Z 2312/2412 22004MPS 5000 HZ NSC TX36/2407Z TN25/2320Z